Young Spirit — D7OH — position and weather

sailwx.info

Track history (hours):
 
Tides and Currents Weather Stations Pressure Air Temp Water Temp Dewpoint Dewpoint Depression Visibility Wind Speed Wind Dir Waves Ship Positions

Young Spirit

Last reported at 2018-May-15 02:38 UTC. Time now 2018-May-22 21:23 UTC.
Position N 24°55' E 062°50'.

Length 206 m; draft 7.4 m.

Type: Cargo ship. MMSI: 440274000.

Date/timePositionNaut miles runAvg speedWind from/ knotsBaromVisibWave heightAir tempDewpointWater temp
2018-May-15 02:38N 24°55' E 062°50'1411.7
2018-May-15 01:25N 24°56' E 063°06'  
2018-May-08 21:33N 20°55' E 068°58'211.5
2018-May-08 21:24N 20°53' E 068°59'511.6
2018-May-08 21:01N 20°49' E 069°02'711.6
2018-May-08 20:26N 20°44' E 069°05'511.5
2018-May-08 20:00N 20°39' E 069°08'811.5
2018-May-08 19:16N 20°32' E 069°12'311.5
2018-May-08 18:59N 20°29' E 069°14'611.5
2018-May-08 18:29N 20°24' E 069°17'2811.3
2018-May-08 16:01N 20°00' E 069°32'111.5
2018-May-08 15:55N 19°59' E 069°33'1811.4
2018-May-08 14:19N 19°43' E 069°42'311.2
2018-May-08 14:00N 19°40' E 069°44'611.1
2018-May-08 13:27N 19°35' E 069°47'611.2
2018-May-08 12:57N 19°30' E 069°50'1711.4
2018-May-08 11:26N 19°15' E 069°60'511.4
2018-May-08 10:59N 19°11' E 070°02'611.2
2018-May-08 10:29N 19°06' E 070°05'611.2
2018-May-08 09:59N 19°01' E 070°08'611.4
2018-May-08 09:26N 18°56' E 070°11'511.4
2018-May-08 08:59N 18°51' E 070°14'611.6
2018-May-08 08:28N 18°46' E 070°17'3511.5
2018-May-08 05:28N 18°16' E 070°36'511.3
2018-May-08 05:00N 18°11' E 070°38'611.1
2018-May-08 04:30N 18°07' E 070°41'611.2
2018-May-08 04:00N 18°02' E 070°44'3211.0
2018-May-08 01:04N 17°34' E 071°01'1111.2
2018-May-08 00:05N 17°24' E 071°07'4011.3
2018-May-07 20:31N 16°49' E 071°28'  
Track history (hours):
 
Tides and Currents Weather Stations Pressure Air Temp Water Temp Dewpoint Dewpoint Depression Visibility Wind Speed Wind Dir Waves Ship Positions

Young Spirit

Last reported at 2018-May-15 02:38 UTC. Time now 2018-May-22 21:23 UTC.
Position N 24°55' E 062°50'.

Length 206 m; draft 7.4 m.

Type: Cargo ship. MMSI: 440274000.

Date/timePositionNaut miles runAvg speedWind from/ knotsBaromVisibWave heightAir tempDewpointWater temp
2018-May-15 02:38N 24°55' E 062°50'1411.7
2018-May-15 01:25N 24°56' E 063°06'  
2018-May-08 21:33N 20°55' E 068°58'211.5
2018-May-08 21:24N 20°53' E 068°59'511.6
2018-May-08 21:01N 20°49' E 069°02'711.6
2018-May-08 20:26N 20°44' E 069°05'511.5
2018-May-08 20:00N 20°39' E 069°08'811.5
2018-May-08 19:16N 20°32' E 069°12'311.5
2018-May-08 18:59N 20°29' E 069°14'611.5
2018-May-08 18:29N 20°24' E 069°17'2811.3
2018-May-08 16:01N 20°00' E 069°32'111.5
2018-May-08 15:55N 19°59' E 069°33'1811.4
2018-May-08 14:19N 19°43' E 069°42'311.2
2018-May-08 14:00N 19°40' E 069°44'611.1
2018-May-08 13:27N 19°35' E 069°47'611.2
2018-May-08 12:57N 19°30' E 069°50'1711.4
2018-May-08 11:26N 19°15' E 069°60'511.4
2018-May-08 10:59N 19°11' E 070°02'611.2
2018-May-08 10:29N 19°06' E 070°05'611.2
2018-May-08 09:59N 19°01' E 070°08'611.4
2018-May-08 09:26N 18°56' E 070°11'511.4
2018-May-08 08:59N 18°51' E 070°14'611.6
2018-May-08 08:28N 18°46' E 070°17'3511.5
2018-May-08 05:28N 18°16' E 070°36'511.3
2018-May-08 05:00N 18°11' E 070°38'611.1
2018-May-08 04:30N 18°07' E 070°41'611.2
2018-May-08 04:00N 18°02' E 070°44'3211.0
2018-May-08 01:04N 17°34' E 071°01'1111.2
2018-May-08 00:05N 17°24' E 071°07'4011.3
2018-May-07 20:31N 16°49' E 071°28'  

Dump ship's entire track history